Time;durP1;ratioP1;P1;durP2;ratioP2;P2;SDS_P1;SDS_P2;PMS_P1;PMS_P2;Temp;Humidity;BMP_temperature;BMP_pressure;BME280_temperature;BME280_humidity;BME280_pressure;Samples;Min_cycle;Max_cycle;Signal;HPM_P1;HPM_P2
2023/01/08 00:02:02;;;;;;;2.13;1.75;;;11.50;99.90;;;;;;5083137;28;20024;-39
2023/01/08 00:04:27;;;;;;;2.53;1.95;;;11.50;99.90;;;;;;5083560;28;20107;-37
2023/01/08 00:06:53;;;;;;;2.38;1.90;;;11.50;99.90;;;;;;5086259;28;20051;-38
2023/01/08 00:09:18;;;;;;;1.75;1.60;;;11.50;99.90;;;;;;5087534;28;20036;-38
2023/01/08 00:11:44;;;;;;;2.28;1.75;;;11.50;99.90;;;;;;5087682;28;20047;-39
2023/01/08 00:14:12;;;;;;;1.83;1.73;;;11.50;99.90;;;;;;5086463;28;20068;-38
2023/01/08 00:16:38;;;;;;;2.85;1.70;;;11.50;99.90;;;;;;5087529;28;20016;-37
2023/01/08 00:19:03;;;;;;;2.55;1.80;;;11.50;99.90;;;;;;5087073;28;20067;-36
2023/01/08 00:21:32;;;;;;;3.42;2.00;;;11.50;99.90;;;;;;5086560;28;20557;-32
2023/01/08 00:23:57;;;;;;;2.03;1.83;;;11.50;99.90;;;;;;5087598;28;20032;-40
2023/01/08 00:26:23;;;;;;;2.53;2.20;;;11.50;99.90;;;;;;5087135;28;20132;-32
2023/01/08 00:28:48;;;;;;;3.47;2.10;;;11.50;99.90;;;;;;5086473;28;20038;-39
2023/01/08 00:31:14;;;;;;;2.83;1.80;;;11.50;99.90;;;;;;5086616;28;20020;-38
2023/01/08 00:33:40;;;;;;;3.08;2.00;;;11.50;99.90;;;;;;5087065;28;20043;-37
2023/01/08 00:36:17;;;;;;;3.47;2.35;;;11.50;99.90;;;;;;5086002;28;20027;-32
2023/01/08 00:38:44;;;;;;;2.22;2.00;;;11.50;99.90;;;;;;5085161;28;20561;-35
2023/01/08 00:41:11;;;;;;;2.58;2.20;;;11.50;99.90;;;;;;5086681;28;20016;-38
2023/01/08 00:43:37;;;;;;;2.30;2.08;;;11.50;99.90;;;;;;5086814;28;20016;-38
2023/01/08 00:46:03;;;;;;;3.15;2.22;;;11.60;99.90;;;;;;5086514;28;20034;-38
2023/01/08 00:48:30;;;;;;;1.98;1.65;;;11.60;99.90;;;;;;5086142;28;20024;-40
2023/01/08 00:50:55;;;;;;;3.15;1.85;;;11.60;99.90;;;;;;5087092;28;20613;-39
2023/01/08 00:53:25;;;;;;;4.55;2.20;;;11.60;99.90;;;;;;5086234;28;20032;-38
2023/01/08 00:56:02;;;;;;;2.90;2.35;;;11.60;99.90;;;;;;5086182;28;20039;-39
2023/01/08 00:58:28;;;;;;;2.67;1.92;;;11.60;99.90;;;;;;5086615;28;20024;-36
2023/01/08 01:00:53;;;;;;;2.55;1.95;;;11.60;99.90;;;;;;5087073;28;20687;-38
2023/01/08 01:03:19;;;;;;;2.28;1.80;;;11.60;99.90;;;;;;5085423;28;20403;-39
2023/01/08 01:05:45;;;;;;;3.25;2.10;;;11.60;99.90;;;;;;5086613;28;20024;-36
2023/01/08 01:08:10;;;;;;;2.70;1.92;;;11.60;99.90;;;;;;5086067;28;20827;-38
2023/01/08 01:10:38;;;;;;;2.50;1.70;;;11.60;99.90;;;;;;5086481;28;20036;-39
2023/01/08 01:13:04;;;;;;;4.95;2.33;;;11.60;99.90;;;;;;5085765;28;20069;-39
2023/01/08 01:15:30;;;;;;;3.58;2.13;;;11.60;99.90;;;;;;5086377;28;20036;-38
2023/01/08 01:17:55;;;;;;;3.15;1.92;;;11.60;99.90;;;;;;5084479;28;20015;-40
2023/01/08 01:20:22;;;;;;;6.53;2.63;;;11.50;99.90;;;;;;5086304;28;20356;-40
2023/01/08 01:22:48;;;;;;;3.10;2.35;;;11.50;99.90;;;;;;5086049;28;20095;-41
2023/01/08 01:25:14;;;;;;;3.25;2.00;;;11.50;99.90;;;;;;5085192;28;20066;-39
2023/01/08 01:27:39;;;;;;;2.92;1.98;;;11.50;99.90;;;;;;5086440;28;20036;-38
2023/01/08 01:30:06;;;;;;;2.65;2.22;;;11.50;99.90;;;;;;5085319;28;20737;-38
2023/01/08 01:32:32;;;;;;;2.40;2.00;;;11.50;99.90;;;;;;5085634;28;20298;-39
2023/01/08 01:34:57;;;;;;;3.33;2.20;;;11.40;99.90;;;;;;5084301;28;20051;-41
2023/01/08 01:37:23;;;;;;;2.47;2.08;;;11.40;99.90;;;;;;5066411;28;20017;-40
2023/01/08 01:39:48;;;;;;;3.00;2.17;;;11.50;99.90;;;;;;5080397;28;20387;-39
2023/01/08 01:45:00;;;;;;;2.88;2.20;;;11.40;99.90;;;;;;5084641;28;20521;-39
2023/01/08 01:47:37;;;;;;;2.20;1.90;;;11.40;99.90;;;;;;5086371;28;20024;-39
2023/01/08 01:50:11;;;;;;;3.40;2.30;;;11.40;99.90;;;;;;5085736;28;20020;-37
2023/01/08 01:52:40;;;;;;;3.90;2.17;;;11.40;99.90;;;;;;5086425;28;20028;-39
2023/01/08 01:55:11;;;;;;;4.78;2.38;;;11.40;99.90;;;;;;5085585;28;20862;-38
2023/01/08 01:57:38;;;;;;;3.58;2.20;;;11.30;99.90;;;;;;5085760;28;20016;-38
2023/01/08 02:00:07;;;;;;;3.25;2.33;;;11.30;99.90;;;;;;5084566;28;20020;-41
2023/01/08 02:02:33;;;;;;;4.65;2.75;;;11.30;99.90;;;;;;5086010;28;20137;-38
2023/01/08 02:04:59;;;;;;;2.58;2.20;;;11.30;99.90;;;;;;5084954;28;20409;-39
2023/01/08 02:07:53;;;;;;;3.80;2.47;;;11.30;99.90;;;;;;5085286;28;20016;-40
2023/01/08 02:10:35;;;;;;;4.60;2.40;;;11.30;99.90;;;;;;5085318;28;20376;-38
2023/01/08 02:13:11;;;;;;;2.72;2.20;;;11.30;99.90;;;;;;5084637;28;20128;-39
2023/01/08 02:15:53;;;;;;;4.50;2.15;;;11.30;99.90;;;;;;5084975;28;20055;-39
2023/01/08 02:18:24;;;;;;;5.38;2.25;;;11.30;99.90;;;;;;5085000;28;20183;-39
2023/01/08 02:21:07;;;;;;;4.32;2.03;;;11.30;99.90;;;;;;5084421;28;20098;-36
2023/01/08 02:23:41;;;;;;;;;;;11.30;99.90;;;;;;5085665;28;20028;-39
2023/01/08 02:26:18;;;;;;;2.80;2.17;;;11.30;99.90;;;;;;5084480;28;19908;-39
2023/01/08 02:28:51;;;;;;;3.45;2.08;;;11.30;99.90;;;;;;5084493;28;20478;-39
2023/01/08 02:31:17;;;;;;;;;;;11.30;99.90;;;;;;5084251;28;20030;-39
2023/01/08 02:33:44;;;;;;;2.17;1.90;;;11.40;99.90;;;;;;5084953;28;20021;-39
2023/01/08 02:36:27;;;;;;;5.03;2.60;;;11.30;99.90;;;;;;5083647;28;20020;-40
2023/01/08 02:39:08;;;;;;;3.97;2.50;;;11.30;99.90;;;;;;5085241;28;20034;-39
2023/01/08 02:41:56;;;;;;;4.43;2.22;;;11.30;99.90;;;;;;5084464;28;20101;-39
2023/01/08 02:44:30;;;;;;;3.88;2.33;;;11.40;99.90;;;;;;5084936;28;20035;-39
2023/01/08 02:46:58;;;;;;;3.67;2.22;;;11.40;99.90;;;;;;5084633;28;20024;-39
2023/01/08 02:49:31;;;;;;;3.03;2.10;;;11.40;99.90;;;;;;5084124;28;20436;-39
2023/01/08 02:51:57;;;;;;;2.83;2.10;;;11.40;99.90;;;;;;5084727;28;20019;-39
2023/01/08 02:54:28;;;;;;;3.22;2.05;;;11.40;99.90;;;;;;5085078;28;20036;-37
2023/01/08 02:56:59;;;;;;;4.22;2.53;;;11.30;99.90;;;;;;5084243;28;20046;-39
2023/01/08 02:59:28;;;;;;;2.85;2.30;;;11.30;99.90;;;;;;5084906;28;20024;-39
2023/01/08 03:01:54;;;;;;;2.60;2.15;;;11.20;99.90;;;;;;5084872;28;20008;-36
2023/01/08 03:04:23;;;;;;;3.55;2.28;;;11.30;99.90;;;;;;5083040;28;20479;-41
2023/01/08 03:06:49;;;;;;;2.78;1.90;;;11.20;99.90;;;;;;5084459;28;20044;-38
2023/01/08 03:09:19;;;;;;;3.55;1.77;;;11.20;99.90;;;;;;5083600;28;20060;-38
2023/01/08 03:12:04;;;;;;;2.70;1.70;;;11.10;99.90;;;;;;5084403;28;20111;-38
2023/01/08 03:14:36;;;;;;;4.45;1.70;;;11.10;99.90;;;;;;5075756;28;20389;-39
2023/01/08 03:17:12;;;;;;;2.63;1.50;;;11.00;99.90;;;;;;5083189;28;20019;-40
2023/01/08 03:19:51;;;;;;;3.55;1.38;;;10.90;99.90;;;;;;5084308;28;20482;-38
2023/01/08 03:22:18;;;;;;;2.15;1.30;;;10.90;99.90;;;;;;5083444;28;20708;-40
2023/01/08 03:24:48;;;;;;;2.63;1.58;;;10.80;99.90;;;;;;5084241;28;20089;-39
2023/01/08 03:27:20;;;;;;;1.63;1.05;;;10.80;99.90;;;;;;5083543;28;20020;-41
2023/01/08 03:29:53;;;;;;;1.35;1.00;;;10.70;99.90;;;;;;5073328;28;20452;-39
2023/01/08 03:32:20;;;;;;;1.92;0.90;;;10.70;99.90;;;;;;5082969;28;20051;-39
2023/01/08 03:34:48;;;;;;;2.60;1.17;;;10.60;99.90;;;;;;5084147;28;20044;-35
2023/01/08 03:37:31;;;;;;;2.33;0.82;;;10.60;99.90;;;;;;5082703;28;20057;-37
2023/01/08 03:40:15;;;;;;;1.48;0.80;;;10.60;99.90;;;;;;5083410;28;20569;-39
2023/01/08 03:42:43;;;;;;;2.22;0.90;;;10.60;99.90;;;;;;5083790;28;20016;-37
2023/01/08 03:45:09;;;;;;;5.18;1.10;;;10.50;99.90;;;;;;5082391;28;20020;-40
2023/01/08 03:47:37;;;;;;;2.60;0.90;;;10.40;99.90;;;;;;5084111;28;20023;-35
2023/01/08 03:50:07;;;;;;;2.30;0.80;;;10.40;99.90;;;;;;5083732;28;20027;-38
2023/01/08 03:52:32;;;;;;;2.28;1.00;;;10.40;99.90;;;;;;5083730;28;20391;-39
2023/01/08 03:54:58;;;;;;;3.10;0.88;;;10.30;99.90;;;;;;5083571;28;20510;-39
2023/01/08 03:57:24;;;;;;;2.35;0.80;;;10.30;99.90;;;;;;5084098;28;20028;-34
2023/01/08 03:59:49;;;;;;;2.45;0.90;;;10.30;99.90;;;;;;5082827;28;20828;-39
2023/01/08 04:02:15;;;;;;;2.45;0.82;;;10.30;99.90;;;;;;5083659;28;20028;-35
2023/01/08 04:04:41;;;;;;;2.95;1.05;;;10.30;99.90;;;;;;5083665;28;20024;-38
2023/01/08 04:07:08;;;;;;;2.00;0.80;;;10.20;99.90;;;;;;5083169;28;20017;-38
2023/01/08 04:09:34;;;;;;;2.70;0.70;;;10.20;99.90;;;;;;5083587;28;20032;-39
2023/01/08 04:11:59;;;;;;;3.47;0.70;;;10.20;99.90;;;;;;5083400;28;20024;-39
2023/01/08 04:14:25;;;;;;;1.40;0.70;;;10.20;99.90;;;;;;5082804;28;20118;-38
2023/01/08 04:16:57;;;;;;;3.47;0.85;;;10.20;99.90;;;;;;5083921;28;20058;-39
2023/01/08 04:19:25;;;;;;;2.28;0.73;;;10.20;99.90;;;;;;5083162;28;20024;-37
2023/01/08 04:21:51;;;;;;;2.80;0.60;;;10.20;99.90;;;;;;5083291;28;20506;-38
2023/01/08 04:24:18;;;;;;;5.28;0.85;;;10.20;99.90;;;;;;5083103;28;20028;-37
2023/01/08 04:26:43;;;;;;;2.70;0.50;;;10.20;99.90;;;;;;5083310;28;20040;-38
2023/01/08 04:29:11;;;;;;;3.85;0.90;;;10.20;99.90;;;;;;5083348;28;20036;-38
2023/01/08 04:31:36;;;;;;;3.17;0.82;;;10.20;99.90;;;;;;5083369;28;20165;-38
2023/01/08 04:34:02;;;;;;;1.48;0.60;;;10.10;99.90;;;;;;5082134;28;20147;-39
2023/01/08 04:36:28;;;;;;;1.23;0.60;;;10.10;99.90;;;;;;5083501;28;20028;-39
2023/01/08 04:38:56;;;;;;;2.13;0.60;;;10.10;99.90;;;;;;5083720;28;20060;-38
2023/01/08 04:41:21;;;;;;;3.13;0.98;;;10.10;99.90;;;;;;5082610;28;20034;-38
2023/01/08 04:43:47;;;;;;;1.27;0.47;;;10.10;99.90;;;;;;5083503;28;20119;-37
2023/01/08 04:46:13;;;;;;;2.35;0.80;;;10.10;99.90;;;;;;5082782;28;20020;-38
2023/01/08 04:48:38;;;;;;;2.50;0.80;;;10.10;99.90;;;;;;5082952;28;20035;-37
2023/01/08 04:51:04;;;;;;;1.63;0.75;;;10.10;99.90;;;;;;5083045;28;20017;-39
2023/01/08 04:53:34;;;;;;;1.13;0.57;;;10.10;99.90;;;;;;5085918;28;20369;-39
2023/01/08 04:56:08;;;;;;;2.58;0.80;;;10.10;99.90;;;;;;5085787;28;20050;-39
2023/01/08 04:58:34;;;;;;;3.10;0.73;;;10.20;99.90;;;;;;5086731;28;20079;-39
2023/01/08 05:01:00;;;;;;;2.53;0.70;;;10.20;99.90;;;;;;5085493;28;20023;-36
2023/01/08 05:03:26;;;;;;;2.03;0.63;;;10.20;99.90;;;;;;5085584;28;20024;-36
2023/01/08 05:05:54;;;;;;;2.03;0.70;;;10.20;99.90;;;;;;5086765;28;20104;-39
2023/01/08 05:08:20;;;;;;;1.10;0.63;;;10.20;99.90;;;;;;5086170;28;20043;-37
2023/01/08 05:10:45;;;;;;;1.98;0.70;;;10.20;99.90;;;;;;5085708;28;20024;-40
2023/01/08 05:13:11;;;;;;;3.60;0.80;;;10.20;99.90;;;;;;5085986;28;20055;-36
2023/01/08 05:15:36;;;;;;;3.42;0.77;;;10.20;99.90;;;;;;5085863;28;20058;-36
2023/01/08 05:18:04;;;;;;;1.30;0.50;;;10.10;99.90;;;;;;5085929;28;20043;-39
2023/01/08 05:20:31;;;;;;;1.55;0.68;;;10.10;99.90;;;;;;5086427;28;20043;-37
2023/01/08 05:22:57;;;;;;;1.88;0.70;;;10.10;99.90;;;;;;5084009;28;20077;-39
2023/01/08 05:25:26;;;;;;;3.13;0.90;;;10.10;99.90;;;;;;5086729;28;20032;-37
2023/01/08 05:27:52;;;;;;;2.28;0.95;;;10.10;99.90;;;;;;5086160;28;20030;-37
2023/01/08 05:30:17;;;;;;;1.67;0.50;;;10.10;99.90;;;;;;5085266;28;20093;-40
2023/01/08 05:32:43;;;;;;;3.20;0.75;;;10.20;99.90;;;;;;5086348;28;20044;-38
2023/01/08 05:35:09;;;;;;;2.97;0.80;;;10.10;99.90;;;;;;5085093;28;20055;-39
2023/01/08 05:37:35;;;;;;;3.20;0.80;;;10.10;99.90;;;;;;5085300;28;20016;-37
2023/01/08 05:40:00;;;;;;;2.83;1.10;;;10.10;99.90;;;;;;5085726;28;20524;-37
2023/01/08 05:42:29;;;;;;;2.55;0.70;;;10.10;99.90;;;;;;5085692;28;20028;-38
2023/01/08 05:44:55;;;;;;;1.85;0.82;;;10.10;99.90;;;;;;5085433;28;20024;-38
2023/01/08 05:47:20;;;;;;;2.17;0.82;;;10.10;99.90;;;;;;5085713;28;20027;-38
2023/01/08 05:49:46;;;;;;;2.38;1.00;;;10.10;99.90;;;;;;5086057;28;20107;-35
2023/01/08 05:52:11;;;;;;;3.17;1.00;;;10.10;99.90;;;;;;5084061;28;20483;-39
2023/01/08 05:54:37;;;;;;;2.40;0.70;;;10.10;99.90;;;;;;5086007;28;20122;-39
2023/01/08 05:57:02;;;;;;;1.45;0.80;;;10.10;99.90;;;;;;5084887;28;20122;-40
2023/01/08 05:59:28;;;;;;;2.30;0.77;;;10.10;99.90;;;;;;5084792;28;20027;-37
2023/01/08 06:01:53;;;;;;;1.15;0.73;;;10.00;99.90;;;;;;5086017;28;20783;-38
2023/01/08 06:04:19;;;;;;;1.20;0.80;;;10.00;99.90;;;;;;5084566;28;20089;-39
2023/01/08 06:06:44;;;;;;;1.17;0.70;;;10.00;99.90;;;;;;5085096;28;20449;-38
2023/01/08 06:09:10;;;;;;;2.33;0.70;;;10.00;99.90;;;;;;5084658;28;20024;-39
2023/01/08 06:11:36;;;;;;;2.75;1.00;;;10.00;99.90;;;;;;5085397;28;20024;-38
2023/01/08 06:14:01;;;;;;;1.95;0.70;;;10.00;99.90;;;;;;5083642;28;20833;-40
2023/01/08 06:16:27;;;;;;;2.75;1.17;;;9.90;99.90;;;;;;5085538;28;20081;-37
2023/01/08 06:18:52;;;;;;;3.00;1.05;;;9.90;99.90;;;;;;5084960;28;20023;-39
2023/01/08 06:21:18;;;;;;;1.63;0.88;;;9.90;99.90;;;;;;5084114;28;20035;-38
2023/01/08 06:23:43;;;;;;;2.45;0.90;;;9.90;99.90;;;;;;5085265;28;20020;-38
2023/01/08 06:26:09;;;;;;;2.65;1.10;;;9.90;99.90;;;;;;5084106;28;20093;-39
2023/01/08 06:28:35;;;;;;;2.22;1.00;;;9.90;99.90;;;;;;5085475;28;20454;-39
2023/01/08 06:31:01;;;;;;;1.33;0.90;;;9.80;99.90;;;;;;5084790;28;20103;-36
2023/01/08 06:33:28;;;;;;;2.30;0.80;;;9.80;99.90;;;;;;5084699;28;20028;-39
2023/01/08 06:35:53;;;;;;;2.72;0.88;;;9.70;99.90;;;;;;5084733;28;20019;-37
2023/01/08 06:38:19;;;;;;;1.15;0.90;;;9.70;99.90;;;;;;5084481;28;20467;-38
2023/01/08 06:40:45;;;;;;;1.92;0.60;;;9.60;99.90;;;;;;5084413;28;20035;-39
2023/01/08 06:43:11;;;;;;;1.60;0.80;;;9.50;99.90;;;;;;5084278;28;20035;-39
2023/01/08 06:45:37;;;;;;;1.88;0.70;;;9.50;99.90;;;;;;5084492;28;20479;-38
2023/01/08 06:48:04;;;;;;;1.45;0.90;;;9.40;99.90;;;;;;5083572;28;20120;-39
2023/01/08 06:50:31;;;;;;;2.65;0.60;;;9.30;99.90;;;;;;5084370;28;20815;-38
2023/01/08 06:52:57;;;;;;;1.55;0.95;;;9.30;99.90;;;;;;5084329;28;20028;-38
2023/01/08 06:55:26;;;;;;;2.25;0.70;;;9.20;99.90;;;;;;5083472;28;20032;-39
2023/01/08 06:57:56;;;;;;;3.03;0.77;;;9.20;99.90;;;;;;5085055;28;20020;-36
2023/01/08 07:00:22;;;;;;;2.40;0.77;;;9.10;99.90;;;;;;5084095;28;20094;-36
2023/01/08 07:02:52;;;;;;;2.13;0.90;;;9.10;99.90;;;;;;5085099;28;20028;-36
2023/01/08 07:05:17;;;;;;;1.98;0.70;;;9.10;99.90;;;;;;5085186;28;20779;-32
2023/01/08 07:07:43;;;;;;;2.45;0.70;;;9.00;99.90;;;;;;5086119;28;20028;-34
2023/01/08 07:10:09;;;;;;;2.78;0.88;;;9.00;99.90;;;;;;5083576;28;20024;-39
2023/01/08 07:12:35;;;;;;;0.82;0.50;;;9.00;99.90;;;;;;5084753;28;20036;-38
2023/01/08 07:15:01;;;;;;;2.60;0.73;;;8.90;99.90;;;;;;5083100;28;20039;-39
2023/01/08 07:17:30;;;;;;;3.00;1.10;;;8.90;99.90;;;;;;5083781;28;20038;-37
2023/01/08 07:19:55;;;;;;;2.70;0.90;;;8.90;99.90;;;;;;5084745;28;20455;-38
2023/01/08 07:22:22;;;;;;;4.15;0.70;;;8.80;99.90;;;;;;5082772;28;20456;-35
2023/01/08 07:24:47;;;;;;;1.70;0.70;;;8.80;99.90;;;;;;5084076;28;20027;-38
2023/01/08 07:27:13;;;;;;;2.70;0.75;;;8.80;99.90;;;;;;5083566;28;20032;-39
2023/01/08 07:29:38;;;;;;;2.55;0.98;;;8.80;99.90;;;;;;5083504;28;20501;-35
2023/01/08 07:32:04;;;;;;;2.15;0.73;;;8.70;99.90;;;;;;5083103;28;20512;-37
2023/01/08 07:34:31;;;;;;;3.90;0.90;;;8.70;99.90;;;;;;5084104;28;20056;-39
2023/01/08 07:36:57;;;;;;;3.38;0.75;;;8.70;99.90;;;;;;5082622;28;20152;-39
2023/01/08 07:39:22;;;;;;;3.70;1.00;;;8.60;99.90;;;;;;5083692;28;20111;-40
2023/01/08 07:41:48;;;;;;;4.45;1.13;;;8.60;99.90;;;;;;5083701;28;20488;-38
2023/01/08 07:44:13;;;;;;;3.60;0.85;;;8.60;99.90;;;;;;5082038;28;20036;-37
2023/01/08 07:46:39;;;;;;;4.13;1.10;;;8.60;99.90;;;;;;5084108;28;20172;-33
2023/01/08 07:49:05;;;;;;;3.55;0.90;;;8.60;99.90;;;;;;5083067;28;20051;-38
2023/01/08 07:51:30;;;;;;;4.90;1.30;;;8.50;99.90;;;;;;5082907;28;20024;-36
2023/01/08 07:53:56;;;;;;;2.60;0.98;;;8.50;99.90;;;;;;5083839;28;20043;-39
2023/01/08 07:56:22;;;;;;;4.05;0.70;;;8.60;99.90;;;;;;5083503;28;20012;-38
2023/01/08 07:58:48;;;;;;;1.98;0.80;;;8.50;99.90;;;;;;5083817;28;20119;-39
2023/01/08 08:01:14;;;;;;;4.22;1.00;;;8.60;99.90;;;;;;5082832;28;20111;-40
2023/01/08 08:03:40;;;;;;;3.10;0.70;;;8.60;99.90;;;;;;5083703;28;20115;-40
2023/01/08 08:06:06;;;;;;;4.72;1.20;;;8.60;99.90;;;;;;5082603;28;20027;-38
2023/01/08 08:08:32;;;;;;;5.25;1.40;;;8.60;99.90;;;;;;5083976;28;20043;-39
2023/01/08 08:10:57;;;;;;;2.00;0.90;;;8.60;99.90;;;;;;5083590;28;20498;-38
2023/01/08 08:13:23;;;;;;;1.75;1.00;;;8.60;99.90;;;;;;5082824;28;20036;-35
2023/01/08 08:15:48;;;;;;;6.72;1.20;;;8.60;99.90;;;;;;5083452;28;20038;-38
2023/01/08 08:18:14;;;;;;;3.05;1.27;;;8.60;99.90;;;;;;5082679;28;20110;-39
2023/01/08 08:20:40;;;;;;;3.30;1.48;;;8.60;99.90;;;;;;5083191;28;20036;-38
2023/01/08 08:23:08;;;;;;;5.72;1.17;;;8.60;99.90;;;;;;5082568;28;20028;-39
2023/01/08 08:25:34;;;;;;;3.47;1.13;;;8.60;99.90;;;;;;5082791;28;20450;-39
2023/01/08 08:28:00;;;;;;;3.42;1.45;;;8.50;99.90;;;;;;5086335;28;20034;-34
2023/01/08 08:30:27;;;;;;;2.78;0.95;;;8.50;99.90;;;;;;5087257;28;20032;-40
2023/01/08 08:32:54;;;;;;;3.38;1.20;;;8.60;99.90;;;;;;5086317;28;20047;-38
2023/01/08 08:35:20;;;;;;;2.00;1.10;;;8.60;99.90;;;;;;5086471;28;20326;-39
2023/01/08 08:37:46;;;;;;;4.97;1.65;;;8.60;99.90;;;;;;5086677;28;20787;-39
2023/01/08 08:40:12;;;;;;;3.63;1.40;;;8.60;99.90;;;;;;5086249;28;20028;-40
2023/01/08 08:42:37;;;;;;;5.55;1.23;;;8.60;99.90;;;;;;5087149;28;20063;-39
2023/01/08 08:45:04;;;;;;;5.63;1.55;;;8.60;99.90;;;;;;5086984;28;20024;-39
2023/01/08 08:47:29;;;;;;;4.40;1.20;;;8.60;99.90;;;;;;5086143;28;20047;-40
2023/01/08 08:49:55;;;;;;;3.72;1.00;;;8.50;99.90;;;;;;5086832;28;20020;-34
2023/01/08 08:52:20;;;;;;;7.03;1.15;;;8.60;99.90;;;;;;5086592;28;20036;-39
2023/01/08 08:54:46;;;;;;;5.22;1.00;;;8.50;99.90;;;;;;5086237;28;20032;-39
2023/01/08 08:57:12;;;;;;;4.70;1.20;;;8.60;99.90;;;;;;5086214;28;20031;-39
2023/01/08 08:59:37;;;;;;;5.40;1.13;;;8.60;99.90;;;;;;5087030;28;20020;-39
2023/01/08 09:02:04;;;;;;;4.78;1.10;;;8.60;99.90;;;;;;5085131;28;20024;-37
2023/01/08 09:04:31;;;;;;;7.50;1.25;;;8.60;99.90;;;;;;5086986;28;20052;-36
2023/01/08 09:06:56;;;;;;;3.22;1.00;;;8.60;99.90;;;;;;5086793;28;20020;-38
2023/01/08 09:09:22;;;;;;;6.53;1.13;;;8.70;99.90;;;;;;5085231;28;20084;-38
2023/01/08 09:11:47;;;;;;;4.45;1.67;;;8.70;99.90;;;;;;5086638;28;20032;-41
2023/01/08 09:14:13;;;;;;;5.05;1.70;;;8.70;99.90;;;;;;5085512;28;20047;-39
2023/01/08 09:16:38;;;;;;;5.57;1.30;;;8.70;99.90;;;;;;5084303;28;20051;-40
2023/01/08 09:19:05;;;;;;;6.55;1.58;;;8.80;99.90;;;;;;5084430;28;20028;-35
2023/01/08 09:21:31;;;;;;;3.78;1.08;;;8.80;99.90;;;;;;5086144;28;20123;-38
2023/01/08 09:23:56;;;;;;;3.63;0.88;;;8.80;99.90;;;;;;5084832;28;20464;-39
2023/01/08 09:26:22;;;;;;;3.45;1.10;;;8.80;99.90;;;;;;5089634;28;20665;-38
2023/01/08 09:28:48;;;;;;;3.10;0.90;;;8.90;99.90;;;;;;5085278;28;20119;-38
2023/01/08 09:31:13;;;;;;;3.88;0.95;;;8.90;99.90;;;;;;5083560;28;20483;-39
2023/01/08 09:33:39;;;;;;;4.90;1.50;;;8.90;99.90;;;;;;5085685;28;20490;-38
2023/01/08 09:36:09;;;;;;;5.47;1.70;;;8.90;99.90;;;;;;5084326;28;20157;-38
2023/01/08 09:38:35;;;;;;;6.07;1.73;;;8.90;99.90;;;;;;5085626;28;20588;-38
2023/01/08 09:41:10;;;;;;;4.47;1.35;;;9.00;99.90;;;;;;5084856;28;20527;-38
2023/01/08 09:43:39;;;;;;;4.20;1.10;;;9.00;99.90;;;;;;5065010;28;20056;-40
2023/01/08 09:46:06;;;;;;;6.25;1.40;;;9.10;99.90;;;;;;5079645;28;20098;-37
2023/01/08 09:48:35;;;;;;;4.75;1.23;;;9.10;99.90;;;;;;5084821;28;21043;-39
2023/01/08 09:51:01;;;;;;;5.10;1.00;;;9.10;99.90;;;;;;5083832;28;20081;-40
2023/01/08 09:53:28;;;;;;;4.30;1.50;;;9.10;99.90;;;;;;5085017;28;20036;-38
2023/01/08 09:56:02;;;;;;;4.43;1.45;;;9.20;99.90;;;;;;5085547;28;20032;-38
2023/01/08 09:58:51;;;;;;;2.70;1.40;;;9.20;99.90;;;;;;5084507;28;20024;-36
2023/01/08 10:01:23;;;;;;;5.53;1.35;;;9.20;99.90;;;;;;5084719;28;20020;-33
2023/01/08 10:03:58;;;;;;;5.28;1.40;;;9.20;99.90;;;;;;5084698;28;20149;-35
2023/01/08 10:06:24;;;;;;;4.53;1.17;;;9.20;99.90;;;;;;5084747;28;20024;-39
2023/01/08 10:08:51;;;;;;;5.75;1.33;;;9.20;99.90;;;;;;5085003;28;20039;-39
2023/01/08 10:11:32;;;;;;;3.03;1.05;;;9.20;99.90;;;;;;5083748;28;20031;-38
2023/01/08 10:14:00;;;;;;;6.57;1.30;;;9.20;99.90;;;;;;5085081;28;20123;-38
2023/01/08 10:16:34;;;;;;;4.32;1.40;;;9.20;99.90;;;;;;5084579;28;20584;-39
2023/01/08 10:19:01;;;;;;;4.20;1.15;;;9.20;99.90;;;;;;5084041;28;20028;-40
2023/01/08 10:21:36;;;;;;;5.13;1.55;;;9.20;99.90;;;;;;5084630;28;20031;-39
2023/01/08 10:24:02;;;;;;;5.97;1.40;;;9.20;99.90;;;;;;5084622;28;20051;-39
2023/01/08 10:26:31;;;;;;;4.45;1.55;;;9.20;99.90;;;;;;5084433;28;20896;-38
2023/01/08 10:29:12;;;;;;;3.72;1.88;;;9.20;99.90;;;;;;5085072;28;20028;-39
2023/01/08 10:31:54;;;;;;;5.00;1.70;;;9.30;99.90;;;;;;5085231;28;20039;-39
2023/01/08 10:34:31;;;;;;;5.35;1.55;;;9.30;99.90;;;;;;5083849;28;20058;-39
2023/01/08 10:36:56;;;;;;;7.53;1.92;;;9.30;99.90;;;;;;5084936;28;20023;-39
2023/01/08 10:39:27;;;;;;;5.03;1.42;;;9.30;99.90;;;;;;5083760;28;20024;-42
2023/01/08 10:41:56;;;;;;;6.03;1.55;;;9.40;99.90;;;;;;5085230;28;20078;-38
2023/01/08 10:44:24;;;;;;;6.22;1.60;;;9.40;99.90;;;;;;5084293;28;20028;-39
2023/01/08 10:46:53;;;;;;;6.18;1.20;;;9.40;99.90;;;;;;5084274;28;20016;-39
2023/01/08 10:49:32;;;;;;;6.00;1.35;;;9.40;99.90;;;;;;5083949;28;20031;-36
2023/01/08 10:51:59;;;;;;;4.53;1.35;;;9.40;99.90;;;;;;5083521;28;20020;-36
2023/01/08 10:54:30;;;;;;;4.93;1.38;;;9.50;99.90;;;;;;5083379;28;20040;-38
2023/01/08 10:56:57;;;;;;;5.90;1.33;;;9.50;99.90;;;;;;5084806;28;20028;-37
2023/01/08 10:59:24;;;;;;;8.05;1.90;;;9.50;99.90;;;;;;5084498;28;20794;-39
2023/01/08 11:01:52;;;;;;;4.63;1.60;;;9.60;99.90;;;;;;5087223;28;20032;-37
2023/01/08 11:04:22;;;;;;;5.47;1.60;;;9.60;99.90;;;;;;5082288;28;20023;-37
2023/01/08 11:06:48;;;;;;;4.45;2.08;;;9.60;99.90;;;;;;5084405;28;20031;-38
2023/01/08 11:09:22;;;;;;;5.10;1.33;;;9.70;99.90;;;;;;5081854;28;20032;-38
2023/01/08 11:11:48;;;;;;;3.38;1.05;;;9.70;99.90;;;;;;5084416;28;20204;-36
2023/01/08 11:14:28;;;;;;;5.80;1.45;;;9.70;99.90;;;;;;5083139;28;20784;-39
2023/01/08 11:16:55;;;;;;;6.30;1.73;;;9.80;99.90;;;;;;5084398;28;20020;-39
2023/01/08 11:19:26;;;;;;;8.05;1.30;;;9.80;99.90;;;;;;5083037;28;20035;-41
2023/01/08 11:22:16;;;;;;;6.40;1.45;;;9.80;99.90;;;;;;5063620;28;20799;-39
2023/01/08 11:24:43;;;;;;;5.43;1.45;;;9.80;99.90;;;;;;5081746;28;20019;-38
2023/01/08 11:27:13;;;;;;;2.53;1.13;;;9.80;99.90;;;;;;5083858;28;20020;-39
2023/01/08 11:29:58;;;;;;;3.35;1.30;;;9.80;99.90;;;;;;5083444;28;20031;-36
2023/01/08 11:32:46;;;;;;;6.45;1.95;;;9.90;99.90;;;;;;5063673;28;20473;-37
2023/01/08 11:35:27;;;;;;;3.55;1.60;;;9.90;99.90;;;;;;5082326;28;20036;-38
2023/01/08 11:38:00;;;;;;;2.97;1.55;;;9.90;99.90;;;;;;5084061;28;20531;-39
2023/01/08 11:40:37;;;;;;;2.30;1.25;;;9.90;99.90;;;;;;5083338;28;20160;-35
2023/01/08 11:43:21;;;;;;;3.95;1.70;;;9.90;99.90;;;;;;5082587;28;20431;-39
2023/01/08 11:46:05;;;;;;;4.75;1.60;;;9.90;99.90;;;;;;5082738;28;20067;-39
2023/01/08 11:48:37;;;;;;;4.28;1.48;;;9.90;99.90;;;;;;5083681;28;20687;-40
2023/01/08 11:51:15;;;;;;;1.52;1.08;;;10.00;99.90;;;;;;5079968;28;20028;-39
2023/01/08 11:54:03;;;;;;;4.68;1.17;;;10.00;99.90;;;;;;5084044;28;20085;-35
2023/01/08 11:56:40;;;;;;;4.63;1.42;;;10.00;99.90;;;;;;5081943;28;20066;-38
2023/01/08 11:59:26;;;;;;;4.13;1.45;;;10.00;99.90;;;;;;5082981;28;20032;-37
2023/01/08 12:02:08;;;;;;;3.85;1.40;;;10.10;99.90;;;;;;5075105;28;20031;-38
2023/01/08 12:05:04;;;;;;;3.88;1.25;;;10.20;99.90;;;;;;5086972;28;20055;-37
2023/01/08 12:07:39;;;;;;;3.70;1.67;;;10.20;99.90;;;;;;5080677;28;20423;-40
2023/01/08 12:10:26;;;;;;;3.08;1.00;;;10.20;99.90;;;;;;5086803;28;20024;-36
2023/01/08 12:13:35;;;;;;;3.40;1.10;;;10.20;99.90;;;;;;5087108;28;20040;-38
2023/01/08 12:16:28;;;;;;;3.08;1.40;;;10.20;99.90;;;;;;5075195;28;20044;-38
2023/01/08 12:19:12;;;;;;;1.73;0.98;;;10.20;99.90;;;;;;5067526;28;20224;-38
2023/01/08 12:21:57;;;;;;;1.77;0.95;;;10.20;99.90;;;;;;5085483;28;20036;-39
2023/01/08 12:24:46;;;;;;;2.47;1.00;;;10.30;99.90;;;;;;5071103;28;20479;-38
2023/01/08 12:27:38;;;;;;;1.80;0.70;;;10.30;99.90;;;;;;5086212;28;20069;-40
2023/01/08 12:30:21;;;;;;;1.50;0.82;;;10.30;99.90;;;;;;5086140;28;20039;-38
2023/01/08 12:33:07;;;;;;;1.48;0.57;;;10.40;99.90;;;;;;5085200;28;20048;-39
2023/01/08 12:35:46;;;;;;;2.05;0.77;;;10.40;99.90;;;;;;5085074;28;20835;-38
2023/01/08 12:38:24;;;;;;;1.35;0.55;;;10.40;99.90;;;;;;5076117;28;20565;-40
2023/01/08 12:40:56;;;;;;;0.77;0.50;;;10.40;99.90;;;;;;5085552;28;20048;-38
2023/01/08 12:43:30;;;;;;;1.40;1.10;;;10.50;99.90;;;;;;5085478;28;20111;-39
2023/01/08 12:46:00;;;;;;;1.15;0.77;;;10.60;99.90;;;;;;5085243;28;20258;-40
2023/01/08 12:48:31;;;;;;;1.25;0.80;;;10.60;99.90;;;;;;5075819;28;20127;-40
2023/01/08 12:51:25;;;;;;;1.65;0.70;;;10.70;99.90;;;;;;5085652;28;20534;-39
2023/01/08 12:54:01;;;;;;;1.55;0.70;;;10.80;99.90;;;;;;5076283;28;20527;-37
2023/01/08 12:56:45;;;;;;;1.30;0.57;;;10.80;99.90;;;;;;5086253;28;20111;-39
2023/01/08 12:59:47;;;;;;;1.20;0.50;;;10.90;99.90;;;;;;5086072;28;20028;-40
2023/01/08 13:02:12;;;;;;;3.13;0.45;;;11.00;99.90;;;;;;5085958;28;20028;-39
2023/01/08 13:04:44;;;;;;;1.33;0.50;;;11.10;99.90;;;;;;5086127;28;20023;-39
2023/01/08 13:07:23;;;;;;;1.85;0.70;;;11.10;99.90;;;;;;5085709;28;20082;-39
2023/01/08 13:10:05;;;;;;;1.73;0.80;;;11.10;99.90;;;;;;5086701;28;20040;-40